Time;durP1;ratioP1;P1;durP2;ratioP2;P2;SDS_P1;SDS_P2;PMS_P1;PMS_P2;Temp;Humidity;BMP_temperature;BMP_pressure;BME280_temperature;BME280_humidity;BME280_pressure;Samples;Min_cycle;Max_cycle;Signal;HPM_P1;HPM_P2
2023/11/04 00:02:12;;;;;;;;;;;;;;;10.67;93.68;97805.11;106205;1263;65653;-85
2023/11/04 00:04:39;;;;;;;;;;;;;;;10.68;93.70;97801.77;106130;1259;125051;-85
2023/11/04 00:07:05;;;;;;;;;;;;;;;10.68;93.54;97802.33;106300;1259;61330;-85
2023/11/04 00:09:32;;;;;;;;;;;;;;;10.67;93.49;97801.79;106456;1259;61183;-83
2023/11/04 00:11:58;;;;;;;;;;;;;;;10.66;93.46;97803.39;106161;1259;124859;-83
2023/11/04 00:14:25;;;;;;;;;;;;;;;10.65;93.44;97800.77;106409;1258;66321;-84
2023/11/04 00:16:52;;;;;;;;;;;;;;;10.65;93.52;97797.63;106263;1260;125120;-84
2023/11/04 00:19:18;;;;;;;;;;;;;;;10.66;93.50;97791.64;106325;1259;61183;-84
2023/11/04 00:21:45;;;;;;;;;;;;;;;10.67;93.39;97788.83;106242;1259;61286;-84
2023/11/04 00:24:12;;;;;;;;;;;;;;;10.66;93.38;97784.98;106127;1263;124899;-84
2023/11/04 00:26:39;;;;;;;;;;;;;;;10.65;93.38;97784.13;106167;1258;66319;-84
2023/11/04 00:29:05;;;;;;;;;;;;;;;10.65;93.38;97787.63;106056;1260;124959;-86
2023/11/04 00:31:33;;;;;;;;;;;;;;;10.65;93.45;97783.59;106130;1261;61347;-85
2023/11/04 00:34:04;;;;;;;;;;;;;;;10.66;93.43;97784.98;106050;1259;59700;-83
2023/11/04 00:36:30;;;;;;;;;;;;;;;10.65;93.35;97781.84;106026;1264;124679;-84
2023/11/04 00:38:57;;;;;;;;;;;;;;;10.67;93.42;97782.67;106219;1257;64984;-85
2023/11/04 00:41:23;;;;;;;;;;;;;;;10.67;93.29;97780.58;106342;1259;124824;-85
2023/11/04 00:43:50;;;;;;;;;;;;;;;10.66;93.26;97780.25;106212;1260;61196;-86
2023/11/04 00:46:17;;;;;;;;;;;;;;;10.63;93.09;97773.83;106030;1259;124981;-86
2023/11/04 00:48:43;;;;;;;;;;;;;;;10.63;92.97;97775.24;106266;1262;74709;-85
2023/11/04 00:51:10;;;;;;;;;;;;;;;10.61;92.98;97775.27;106164;1259;65087;-85
2023/11/04 00:53:37;;;;;;;;;;;;;;;10.60;92.89;97774.96;106078;1259;125189;-86
2023/11/04 00:56:04;;;;;;;;;;;;;;;10.58;92.93;97772.90;106153;1260;61216;-86
2023/11/04 00:58:31;;;;;;;;;;;;;;;10.57;92.91;97769.95;106188;1260;125267;-86
2023/11/04 01:00:57;;;;;;;;;;;;;;;10.56;92.97;97768.73;106306;1259;74446;-85
2023/11/04 01:03:24;;;;;;;;;;;;;;;10.57;92.94;97772.41;106329;1262;66352;-85
2023/11/04 01:05:51;;;;;;;;;;;;;;;10.56;92.87;97765.05;106321;1258;124953;-86
2023/11/04 01:08:17;;;;;;;;;;;;;;;10.55;92.91;97765.08;106201;1259;61314;-84
2023/11/04 01:10:44;;;;;;;;;;;;;;;10.56;92.77;97765.23;106125;1259;125082;-83
2023/11/04 01:13:10;;;;;;;;;;;;;;;10.55;92.79;97765.06;106097;1261;74717;-84
2023/11/04 01:15:37;;;;;;;;;;;;;;;10.56;92.88;97763.65;106285;1259;66275;-85
2023/11/04 01:18:04;;;;;;;;;;;;;;;10.55;92.82;97762.96;106186;1259;125015;-84
2023/11/04 01:20:30;;;;;;;;;;;;;;;10.57;92.80;97762.59;106183;1260;61201;-85
2023/11/04 01:22:57;;;;;;;;;;;;;;;10.56;92.76;97763.48;106103;1261;124786;-84
2023/11/04 01:25:24;;;;;;;;;;;;;;;10.55;92.73;97762.27;106131;1259;74832;-84
2023/11/04 01:27:50;;;;;;;;;;;;;;;10.52;92.77;97760.77;106123;1259;65109;-84
2023/11/04 01:30:17;;;;;;;;;;;;;;;10.50;92.85;97765.17;106031;1261;124896;-84
2023/11/04 01:32:44;;;;;;;;;;;;;;;10.48;92.84;97764.01;106243;1259;61401;-84
2023/11/04 01:35:10;;;;;;;;;;;;;;;10.45;93.09;97763.89;106149;1259;124816;-85
2023/11/04 01:37:37;;;;;;;;;;;;;;;10.42;93.02;97762.91;106204;1259;73814;-84
2023/11/04 01:40:08;;;;;;;;;;;;;;;10.36;92.74;97759.02;106224;1259;64949;-85
2023/11/04 01:42:35;;;;;;;;;;;;;;;10.28;92.57;97764.24;106194;1260;74224;-84
2023/11/04 01:45:03;;;;;;;;;;;;;;;10.23;92.39;97756.29;106209;1259;61349;-85
2023/11/04 01:47:29;;;;;;;;;;;;;;;10.15;92.10;97754.34;106054;1259;125458;-85
2023/11/04 01:49:56;;;;;;;;;;;;;;;10.07;91.88;97753.13;106150;1257;74753;-84
2023/11/04 01:52:23;;;;;;;;;;;;;;;9.98;91.71;97757.52;106055;1258;123857;-85
2023/11/04 01:54:49;;;;;;;;;;;;;;;9.90;91.84;97757.66;106260;1257;72709;-84
2023/11/04 01:57:16;;;;;;;;;;;;;;;9.82;91.49;97759.58;106162;1257;61251;-85
2023/11/04 01:59:43;;;;;;;;;;;;;;;9.76;91.46;97764.79;106292;1258;124640;-84
2023/11/04 02:02:11;;;;;;;;;;;;;;;9.70;91.54;97762.79;106306;1259;74799;-83
2023/11/04 02:04:37;;;;;;;;;;;;;;;9.65;91.58;97761.49;106098;1258;124947;-83
2023/11/04 02:07:04;;;;;;;;;;;;;;;9.59;91.50;97768.44;106281;1262;72705;-83
2023/11/04 02:09:30;;;;;;;;;;;;;;;9.52;91.52;97768.91;106102;1260;61300;-84
2023/11/04 02:11:57;;;;;;;;;;;;;;;9.48;91.64;97773.89;106018;1259;124870;-84
2023/11/04 02:14:24;;;;;;;;;;;;;;;9.47;91.76;97781.45;106254;1258;74375;-84
2023/11/04 02:16:52;;;;;;;;;;;;;;;9.43;91.72;97780.27;106009;1260;125169;-85
2023/11/04 02:19:18;;;;;;;;;;;;;;;9.40;91.60;97789.61;106146;1257;71683;-85
2023/11/04 02:21:45;;;;;;;;;;;;;;;9.36;91.62;97799.14;106165;1260;61353;-84
2023/11/04 02:24:12;;;;;;;;;;;;;;;9.33;91.68;97802.84;106330;1258;124815;-85
2023/11/04 02:26:39;;;;;;;;;;;;;;;9.33;91.81;97808.45;106178;1258;73559;-85
2023/11/04 02:29:05;;;;;;;;;;;;;;;9.34;91.94;97809.66;106048;1259;125410;-83
2023/11/04 02:31:33;;;;;;;;;;;;;;;9.34;91.69;97813.36;106005;1258;72735;-83
2023/11/04 02:34:00;;;;;;;;;;;;;;;9.28;91.42;97815.72;106029;1258;61316;-83
2023/11/04 02:36:27;;;;;;;;;;;;;;;9.25;91.32;97828.04;106207;1259;124543;-83
2023/11/04 02:38:53;;;;;;;;;;;;;;;9.23;91.21;97834.01;106284;1262;74726;-83
2023/11/04 02:41:20;;;;;;;;;;;;;;;9.23;91.29;97837.33;105822;1260;124912;-84
2023/11/04 02:43:47;;;;;;;;;;;;;;;9.23;91.35;97840.46;105901;1264;72675;-84
2023/11/04 02:46:13;;;;;;;;;;;;;;;9.23;91.29;97845.36;105903;1263;124939;-85
2023/11/04 02:48:40;;;;;;;;;;;;;;;9.22;91.18;97856.59;106133;1259;61309;-83
2023/11/04 02:51:07;;;;;;;;;;;;;;;9.21;91.23;97871.48;106168;1259;72898;-84
2023/11/04 02:53:34;;;;;;;;;;;;;;;9.20;91.01;97876.92;106141;1259;125110;-84
2023/11/04 02:56:00;;;;;;;;;;;;;;;9.20;91.13;97889.36;106356;1262;72680;-83
2023/11/04 02:58:27;;;;;;;;;;;;;;;9.22;91.07;97893.69;106055;1260;124722;-85
2023/11/04 03:00:54;;;;;;;;;;;;;;;9.21;90.96;97894.06;106231;1261;59977;-85
2023/11/04 03:03:20;;;;;;;;;;;;;;;9.20;90.75;97902.83;106267;1263;73492;-85
2023/11/04 03:05:47;;;;;;;;;;;;;;;9.18;90.67;97909.48;106128;1259;124997;-85
2023/11/04 03:08:14;;;;;;;;;;;;;;;9.19;90.70;97919.98;106356;1259;72750;-85
2023/11/04 03:10:42;;;;;;;;;;;;;;;9.18;90.60;97915.27;106034;1259;124196;-85
2023/11/04 03:13:08;;;;;;;;;;;;;;;9.14;90.46;97927.73;106182;1259;61229;-84
2023/11/04 03:15:35;;;;;;;;;;;;;;;9.13;90.44;97932.14;106205;1261;74738;-83
2023/11/04 03:18:01;;;;;;;;;;;;;;;9.11;90.25;97938.98;106077;1260;125581;-83
2023/11/04 03:20:28;;;;;;;;;;;;;;;9.10;90.19;97945.83;106236;1259;70484;-85
2023/11/04 03:22:55;;;;;;;;;;;;;;;9.10;90.07;97959.13;105958;1260;125032;-84
2023/11/04 03:25:21;;;;;;;;;;;;;;;9.09;89.85;97965.95;106149;1265;61290;-84
2023/11/04 03:27:48;;;;;;;;;;;;;;;9.08;89.78;97969.64;106167;1261;74732;-83
2023/11/04 03:30:15;;;;;;;;;;;;;;;9.07;89.68;97976.48;106125;1260;124771;-84
2023/11/04 03:32:41;;;;;;;;;;;;;;;9.05;89.61;97976.15;106063;1261;72765;-83
2023/11/04 03:35:08;;;;;;;;;;;;;;;9.02;89.49;97978.80;105902;1260;125576;-84
2023/11/04 03:37:34;;;;;;;;;;;;;;;9.02;89.55;97992.63;106055;1264;59753;-83
2023/11/04 03:40:01;;;;;;;;;;;;;;;9.03;89.42;98002.08;106107;1261;74725;-84
2023/11/04 03:42:28;;;;;;;;;;;;;;;9.03;89.48;98006.27;106248;1262;124558;-84
2023/11/04 03:44:55;;;;;;;;;;;;;;;9.05;89.54;98012.90;106167;1260;72714;-85
2023/11/04 03:47:21;;;;;;;;;;;;;;;9.05;89.43;98020.76;106118;1261;124983;-83
2023/11/04 03:49:48;;;;;;;;;;;;;;;9.07;89.53;98026.33;106096;1261;59673;-84
2023/11/04 03:52:14;;;;;;;;;;;;;;;9.07;89.43;98032.61;106030;1260;125042;-85
2023/11/04 03:54:41;;;;;;;;;;;;;;;9.06;89.37;98040.67;106142;1263;65248;-85
2023/11/04 03:57:08;;;;;;;;;;;;;;;9.05;89.34;98046.13;106064;1260;72452;-84
2023/11/04 03:59:34;;;;;;;;;;;;;;;9.03;89.33;98048.06;106001;1259;124999;-85
2023/11/04 04:02:01;;;;;;;;;;;;;;;9.02;89.42;98052.98;106143;1258;60265;-85
2023/11/04 04:04:28;;;;;;;;;;;;;;;9.02;89.40;98055.77;106079;1280;125105;-85
2023/11/04 04:06:54;;;;;;;;;;;;;;;9.02;89.37;98065.23;106061;1258;65018;-84
2023/11/04 04:09:21;;;;;;;;;;;;;;;9.03;89.50;98075.89;106203;1258;72612;-85
2023/11/04 04:11:47;;;;;;;;;;;;;;;9.05;89.46;98079.20;106334;1258;124985;-85
2023/11/04 04:14:14;;;;;;;;;;;;;;;9.06;89.48;98086.18;106250;1257;61257;-85
2023/11/04 04:16:40;;;;;;;;;;;;;;;9.07;89.45;98093.16;106121;1263;125121;-85
2023/11/04 04:19:07;;;;;;;;;;;;;;;9.08;89.51;98096.99;106269;1263;66283;-85
2023/11/04 04:21:36;;;;;;;;;;;;;;;9.09;89.49;98104.85;106256;1257;71150;-85
2023/11/04 04:24:03;;;;;;;;;;;;;;;9.10;89.49;98111.14;106216;1259;124718;-84
2023/11/04 04:26:29;;;;;;;;;;;;;;;9.10;89.54;98118.49;106268;1258;61875;-84
2023/11/04 04:28:57;;;;;;;;;;;;;;;9.12;89.56;98125.98;106112;1264;125371;-84
2023/11/04 04:31:24;;;;;;;;;;;;;;;9.11;89.57;98131.77;106239;1258;66625;-85
2023/11/04 04:33:50;;;;;;;;;;;;;;;9.12;89.58;98142.08;106218;1263;71506;-85
2023/11/04 04:36:17;;;;;;;;;;;;;;;9.13;89.64;98143.12;106313;1259;124911;-84
2023/11/04 04:38:44;;;;;;;;;;;;;;;9.13;89.64;98152.22;106146;1258;61283;-84
2023/11/04 04:41:11;;;;;;;;;;;;;;;9.15;89.75;98163.40;106153;1259;125430;-84
2023/11/04 04:43:38;;;;;;;;;;;;;;;9.18;89.77;98168.42;106290;1260;66106;-84
2023/11/04 04:46:04;;;;;;;;;;;;;;;9.18;89.67;98176.48;106236;1258;71373;-85
2023/11/04 04:48:31;;;;;;;;;;;;;;;9.19;89.77;98187.50;105991;1258;124943;-84
2023/11/04 04:50:58;;;;;;;;;;;;;;;9.20;89.68;98193.95;106108;1258;61195;-84
2023/11/04 04:53:24;;;;;;;;;;;;;;;9.22;89.70;98200.42;106117;1258;125360;-85
2023/11/04 04:55:53;;;;;;;;;;;;;;;9.24;89.70;98205.99;106298;1258;66742;-83
2023/11/04 04:58:21;;;;;;;;;;;;;;;9.24;89.80;98211.77;106218;1259;125010;-83
2023/11/04 05:00:47;;;;;;;;;;;;;;;9.24;89.77;98220.16;106309;1261;61312;-84
2023/11/04 05:03:14;;;;;;;;;;;;;;;9.23;89.72;98221.58;106289;1258;61305;-84
2023/11/04 05:05:41;;;;;;;;;;;;;;;9.22;89.74;98229.64;106117;1258;125194;-85
2023/11/04 05:08:08;;;;;;;;;;;;;;;9.21;89.73;98235.77;106202;1261;66247;-85
2023/11/04 05:10:34;;;;;;;;;;;;;;;9.22;89.75;98236.80;106190;1257;125017;-84
2023/11/04 05:13:02;;;;;;;;;;;;;;;9.24;89.79;98242.91;106117;1258;61370;-83
2023/11/04 05:15:28;;;;;;;;;;;;;;;9.25;89.72;98247.27;106197;1261;61140;-84
2023/11/04 05:17:55;;;;;;;;;;;;;;;9.26;89.80;98256.19;106111;1258;124929;-83
2023/11/04 05:20:22;;;;;;;;;;;;;;;9.28;89.84;98256.34;106104;1258;66317;-84
2023/11/04 05:22:48;;;;;;;;;;;;;;;9.30;89.92;98262.98;106115;1257;125061;-84
2023/11/04 05:25:15;;;;;;;;;;;;;;;9.31;89.83;98269.98;106186;1258;61364;-83
2023/11/04 05:27:42;;;;;;;;;;;;;;;9.31;89.91;98279.42;106179;1258;61242;-85
2023/11/04 05:30:10;;;;;;;;;;;;;;;9.31;89.83;98286.27;106121;1258;124861;-85
2023/11/04 05:32:37;;;;;;;;;;;;;;;9.31;89.89;98293.60;106311;1258;64417;-84
2023/11/04 05:35:04;;;;;;;;;;;;;;;9.31;89.93;98298.48;106073;1258;127400;-84
2023/11/04 05:37:30;;;;;;;;;;;;;;;9.32;90.01;98302.69;106285;1258;61421;-84
2023/11/04 05:39:57;;;;;;;;;;;;;;;9.33;90.01;98311.96;106256;1258;61262;-82
2023/11/04 05:42:24;;;;;;;;;;;;;;;9.33;90.12;98316.86;106161;1257;124685;-85
2023/11/04 05:44:53;;;;;;;;;;;;;;;9.31;90.03;98325.27;106477;1258;64462;-85
2023/11/04 05:47:20;;;;;;;;;;;;;;;9.30;90.05;98333.16;106139;1257;124853;-85
2023/11/04 05:49:46;;;;;;;;;;;;;;;9.28;90.00;98340.52;106430;1261;61295;-85
2023/11/04 05:52:13;;;;;;;;;;;;;;;9.26;90.19;98349.64;106272;1258;125110;-85
2023/11/04 05:54:39;;;;;;;;;;;;;;;9.26;90.16;98350.52;106342;1257;73421;-85
2023/11/04 05:57:06;;;;;;;;;;;;;;;9.28;90.32;98354.52;106478;1258;65040;-86
2023/11/04 05:59:33;;;;;;;;;;;;;;;9.30;90.38;98358.02;106338;1258;124933;-81
2023/11/04 06:01:59;;;;;;;;;;;;;;;9.32;90.46;98361.85;106421;1263;61205;-85
2023/11/04 06:04:26;;;;;;;;;;;;;;;9.33;90.43;98367.61;106595;1258;125619;-81
2023/11/04 06:06:53;;;;;;;;;;;;;;;9.34;90.48;98372.15;106347;1258;61315;-84
2023/11/04 06:09:19;;;;;;;;;;;;;;;9.34;90.37;98381.77;106284;1257;66008;-86
2023/11/04 06:11:46;;;;;;;;;;;;;;;9.34;90.47;98383.70;106222;1262;124758;-85
2023/11/04 06:14:13;;;;;;;;;;;;;;;9.37;90.57;98388.06;106217;1262;61547;-86
2023/11/04 06:16:39;;;;;;;;;;;;;;;9.40;90.65;98391.89;106533;1262;125087;-86
2023/11/04 06:19:06;;;;;;;;;;;;;;;9.42;90.66;98395.02;106431;1259;75226;-86
2023/11/04 06:21:33;;;;;;;;;;;;;;;9.43;90.57;98400.61;106421;1258;66035;-86
2023/11/04 06:24:00;;;;;;;;;;;;;;;9.44;90.82;98404.45;106373;1258;125119;-88
2023/11/04 06:26:26;;;;;;;;;;;;;;;9.44;90.60;98414.09;106535;1263;61390;-87
2023/11/04 06:28:53;;;;;;;;;;;;;;;9.45;90.69;98419.50;106521;1258;125040;-86
2023/11/04 06:31:21;;;;;;;;;;;;;;;9.46;90.73;98424.38;106762;1258;74494;-86
2023/11/04 06:33:50;;;;;;;;;;;;;;;9.46;90.94;98428.77;106941;1263;66300;-87
2023/11/04 06:36:17;;;;;;;;;;;;;;;9.49;90.91;98432.08;106881;1258;125208;-87
2023/11/04 06:38:44;;;;;;;;;;;;;;;9.51;90.88;98436.61;107044;1257;61314;-87
2023/11/04 06:41:12;;;;;;;;;;;;;;;9.51;90.87;98444.65;106929;1257;124894;-87
2023/11/04 06:43:38;;;;;;;;;;;;;;;9.52;90.98;98450.96;106784;1261;73483;-86
2023/11/04 06:46:05;;;;;;;;;;;;;;;9.55;91.02;98453.21;106429;1258;66367;-85
2023/11/04 06:48:33;;;;;;;;;;;;;;;9.57;91.11;98453.55;106311;1257;124545;-85
2023/11/04 06:50:59;;;;;;;;;;;;;;;9.60;91.09;98455.80;106290;1258;61289;-86
2023/11/04 06:53:27;;;;;;;;;;;;;;;9.61;91.02;98461.39;106362;1259;125208;-86
2023/11/04 06:55:56;;;;;;;;;;;;;;;9.63;91.07;98465.93;106383;1264;74525;-87
2023/11/04 06:58:22;;;;;;;;;;;;;;;9.64;91.05;98472.75;106500;1264;125108;-86
2023/11/04 07:00:49;;;;;;;;;;;;;;;9.64;91.15;98477.84;106403;1260;72759;-86
2023/11/04 07:03:16;;;;;;;;;;;;;;;9.64;91.06;98483.25;106324;1259;61983;-85
2023/11/04 07:05:44;;;;;;;;;;;;;;;9.67;91.19;98486.23;106284;1262;124999;-86
2023/11/04 07:08:14;;;;;;;;;;;;;;;9.70;91.25;98490.73;106487;1258;73654;-86
2023/11/04 07:10:41;;;;;;;;;;;;;;;9.72;91.09;98493.70;106201;1258;125330;-86
2023/11/04 07:13:11;;;;;;;;;;;;;;;9.75;91.15;98499.45;106410;1263;71400;-86
2023/11/04 07:15:43;;;;;;;;;;;;;;;9.79;91.16;98508.70;106472;1257;61274;-84
2023/11/04 07:18:14;;;;;;;;;;;;;;;9.82;91.18;98513.95;106853;1258;124798;-75
2023/11/04 07:20:41;;;;;;;;;;;;;;;9.86;91.06;98517.77;105714;1261;72765;-75
2023/11/04 07:23:07;;;;;;;;;;;;;;;9.87;91.10;98522.65;105885;1259;125437;-77
2023/11/04 07:25:34;;;;;;;;;;;;;;;9.90;91.18;98530.88;106335;1258;72737;-78
2023/11/04 07:28:00;;;;;;;;;;;;;;;9.93;91.08;98536.98;106348;1261;61257;-81
2023/11/04 07:30:27;;;;;;;;;;;;;;;9.96;90.96;98536.09;106297;1260;124603;-81
2023/11/04 07:32:54;;;;;;;;;;;;;;;10.02;91.10;98541.30;106403;1258;73750;-89
2023/11/04 07:35:23;;;;;;;;;;;;;;;10.08;90.87;98547.73;106326;1258;124938;-82
2023/11/04 07:37:50;;;;;;;;;;;;;;;10.13;90.86;98554.86;106335;1263;71949;-87
2023/11/04 07:40:17;;;;;;;;;;;;;;;10.20;90.80;98558.30;106212;1260;125237;-89
2023/11/04 07:42:43;;;;;;;;;;;;;;;10.25;90.72;98560.89;106351;1263;61226;-88
2023/11/04 07:45:13;;;;;;;;;;;;;;;10.29;90.48;98566.64;106232;1263;74564;-88
2023/11/04 07:47:40;;;;;;;;;;;;;;;10.35;90.44;98571.36;106226;1258;125982;-88
2023/11/04 07:50:07;;;;;;;;;;;;;;;10.39;90.10;98578.15;106276;1258;71725;-88
2023/11/04 07:52:34;;;;;;;;;;;;;;;10.40;90.08;98581.12;106129;1261;125150;-88
2023/11/04 07:55:00;;;;;;;;;;;;;;;10.42;89.89;98585.85;106328;1263;61359;-87
2023/11/04 07:57:27;;;;;;;;;;;;;;;10.45;89.82;98593.01;106302;1258;73735;-86
2023/11/04 07:59:54;;;;;;;;;;;;;;;10.47;89.73;98593.17;106133;1258;125019;-86
2023/11/04 08:02:21;;;;;;;;;;;;;;;10.48;89.51;98600.35;106328;1257;72720;-85
2023/11/04 08:04:47;;;;;;;;;;;;;;;10.47;89.30;98607.19;106242;1259;126691;-85
2023/11/04 08:07:14;;;;;;;;;;;;;;;10.48;89.39;98610.00;106252;1263;61371;-86
2023/11/04 08:09:42;;;;;;;;;;;;;;;10.53;89.36;98616.79;106305;1258;74626;-86
2023/11/04 08:12:09;;;;;;;;;;;;;;;10.55;88.93;98618.16;106249;1264;124875;-83
2023/11/04 08:14:36;;;;;;;;;;;;;;;10.57;89.05;98622.19;106346;1258;72816;-86
2023/11/04 08:17:03;;;;;;;;;;;;;;;10.61;88.97;98627.41;105806;1258;124896;-88
2023/11/04 08:19:30;;;;;;;;;;;;;;;10.63;88.89;98629.31;106364;1259;61222;-85
2023/11/04 08:21:57;;;;;;;;;;;;;;;10.66;88.66;98632.96;106307;1258;74810;-82
2023/11/04 08:24:25;;;;;;;;;;;;;;;10.69;88.50;98644.70;106294;1258;124858;-82
2023/11/04 08:26:52;;;;;;;;;;;;;;;10.73;88.46;98652.02;106385;1261;71136;-84
2023/11/04 08:29:19;;;;;;;;;;;;;;;10.78;88.46;98657.95;106298;1257;124959;-84
2023/11/04 08:31:45;;;;;;;;;;;;;;;10.80;88.34;98656.70;106494;1261;60378;-82
2023/11/04 08:34:12;;;;;;;;;;;;;;;10.82;88.20;98667.72;106148;1258;125255;-83
2023/11/04 08:36:39;;;;;;;;;;;;;;;10.89;88.12;98669.23;106431;1258;65125;-82
2023/11/04 08:39:07;;;;;;;;;;;;;;;10.96;88.07;98670.05;106229;1258;72755;-82
2023/11/04 08:41:33;;;;;;;;;;;;;;;11.01;87.89;98671.77;106580;1259;124893;-82
2023/11/04 08:44:01;;;;;;;;;;;;;;;11.05;87.69;98674.52;106945;1263;61154;-82
2023/11/04 08:46:28;;;;;;;;;;;;;;;11.08;87.45;98678.52;106755;1258;125454;-82
2023/11/04 08:48:55;;;;;;;;;;;;;;;11.09;87.09;98686.42;106787;1258;66513;-82
2023/11/04 08:51:22;;;;;;;;;;;;;;;11.07;87.01;98686.98;106830;1262;72743;-82
2023/11/04 08:53:49;;;;;;;;;;;;;;;11.08;86.92;98695.39;106652;1258;125177;-83
2023/11/04 08:56:16;;;;;;;;;;;;;;;11.11;86.83;98708.51;106498;1258;61454;-82
2023/11/04 08:58:46;;;;;;;;;;;;;;;11.09;86.62;98715.21;106345;1258;125400;-81
2023/11/04 09:01:12;;;;;;;;;;;;;;;11.11;86.66;98719.23;106272;1258;65151;-81
2023/11/04 09:03:39;;;;;;;;;;;;;;;11.14;86.53;98720.95;106374;1258;61418;-82
2023/11/04 09:06:06;;;;;;;;;;;;;;;11.16;86.44;98727.79;106581;1258;124893;-82
2023/11/04 09:08:32;;;;;;;;;;;;;;;11.17;86.31;98725.84;106957;1261;61334;-82
2023/11/04 09:10:59;;;;;;;;;;;;;;;11.21;86.35;98728.95;106605;1258;126134;-82
2023/11/04 09:13:27;;;;;;;;;;;;;;;11.27;86.32;98730.83;106600;1258;66299;-82
2023/11/04 09:15:54;;;;;;;;;;;;;;;11.31;86.14;98728.67;106596;1258;72792;-82
2023/11/04 09:18:20;;;;;;;;;;;;;;;11.38;86.07;98731.08;106360;1258;125658;-81
2023/11/04 09:20:47;;;;;;;;;;;;;;;11.44;86.02;98735.20;106323;1257;172705;-81
2023/11/04 09:23:14;;;;;;;;;;;;;;;11.54;86.10;98737.39;106169;1262;125459;-81
2023/11/04 09:25:41;;;;;;;;;;;;;;;11.65;85.96;98739.54;106237;1258;65670;-81
2023/11/04 09:28:08;;;;;;;;;;;;;;;11.72;85.75;98746.84;106322;1262;72495;-81
2023/11/04 09:30:35;;;;;;;;;;;;;;;11.75;85.39;98746.11;106127;1258;124946;-81
2023/11/04 09:33:01;;;;;;;;;;;;;;;11.79;85.10;98753.95;106254;1258;61377;-82
2023/11/04 09:35:28;;;;;;;;;;;;;;;11.85;85.21;98748.80;106148;1261;125021;-82
2023/11/04 09:37:55;;;;;;;;;;;;;;;11.92;85.10;98757.36;106209;1261;61298;-82
2023/11/04 09:40:21;;;;;;;;;;;;;;;11.95;84.67;98761.89;106154;1262;125521;-82
2023/11/04 09:42:48;;;;;;;;;;;;;;;12.00;84.70;98763.58;106325;1262;61392;-81
2023/11/04 09:45:16;;;;;;;;;;;;;;;12.04;84.41;98767.58;106262;1258;61209;-82
2023/11/04 09:47:43;;;;;;;;;;;;;;;12.04;84.01;98769.86;106164;1262;125063;-82
2023/11/04 09:50:10;;;;;;;;;;;;;;;12.05;84.04;98770.73;106261;1258;66265;-81
2023/11/04 09:52:37;;;;;;;;;;;;;;;12.14;84.16;98768.32;106129;1260;124994;-81
2023/11/04 09:55:05;;;;;;;;;;;;;;;12.18;83.78;98765.27;106140;1263;61359;-82
2023/11/04 09:57:32;;;;;;;;;;;;;;;12.26;83.74;98771.51;106181;1258;60507;-81
2023/11/04 10:00:03;;;;;;;;;;;;;;;12.36;83.56;98771.90;106142;1263;125085;-81
2023/11/04 10:02:29;;;;;;;;;;;;;;;12.40;83.34;98774.47;106322;1264;65342;-81
2023/11/04 10:04:58;;;;;;;;;;;;;;;12.45;83.13;98773.16;106179;1259;125244;-81
2023/11/04 10:07:24;;;;;;;;;;;;;;;12.49;82.87;98774.00;106383;1261;61316;-82
2023/11/04 10:09:53;;;;;;;;;;;;;;;12.55;82.89;98774.96;106334;1258;59387;-82
2023/11/04 10:12:20;;;;;;;;;;;;;;;12.70;82.99;98775.10;106371;1258;124479;-82
2023/11/04 10:14:47;;;;;;;;;;;;;;;12.78;82.73;98767.75;106199;1264;66500;-82
2023/11/04 10:17:14;;;;;;;;;;;;;;;12.86;82.49;98766.91;106083;1259;124380;-82
2023/11/04 10:19:40;;;;;;;;;;;;;;;12.99;82.57;98764.42;106286;1258;59719;-82
2023/11/04 10:22:09;;;;;;;;;;;;;;;13.16;82.41;98768.71;106207;1261;60404;-83
2023/11/04 10:24:35;;;;;;;;;;;;;;;13.31;82.16;98763.89;106154;1263;124573;-83
2023/11/04 10:27:02;;;;;;;;;;;;;;;13.39;81.79;98764.64;106186;1264;67263;-82
2023/11/04 10:29:29;;;;;;;;;;;;;;;13.36;81.00;98761.70;106131;1257;125559;-82
2023/11/04 10:31:56;;;;;;;;;;;;;;;13.23;80.29;98764.72;106248;1258;61276;-81
2023/11/04 10:34:24;;;;;;;;;;;;;;;13.08;80.07;98770.61;106264;1258;125246;-81
2023/11/04 10:36:51;;;;;;;;;;;;;;;13.00;80.10;98770.56;106367;1258;73395;-82
2023/11/04 10:39:17;;;;;;;;;;;;;;;12.97;79.98;98767.63;106250;1258;66286;-82
2023/11/04 10:41:45;;;;;;;;;;;;;;;12.97;80.16;98766.39;106083;1258;126090;-83
2023/11/04 10:44:15;;;;;;;;;;;;;;;12.96;79.99;98770.64;106150;1265;61356;-83
2023/11/04 10:46:44;;;;;;;;;;;;;;;12.91;79.64;98772.12;106263;1261;125890;-82
2023/11/04 10:49:13;;;;;;;;;;;;;;;12.90;79.86;98774.95;106192;1260;73088;-83
2023/11/04 10:51:46;;;;;;;;;;;;;;;12.98;79.94;98777.48;106337;1260;65605;-83
2023/11/04 10:54:12;;;;;;;;;;;;;;;12.98;79.64;98785.23;106070;1258;125562;-83
2023/11/04 10:56:49;;;;;;;;;;;;;;;12.94;79.55;98787.04;106154;1259;61556;-82
2023/11/04 10:59:18;;;;;;;;;;;;;;;12.87;79.13;98792.08;106166;1260;124454;-82
2023/11/04 11:01:45;;;;;;;;;;;;;;;12.74;78.84;98798.98;106258;1263;74718;-82
2023/11/04 11:04:11;;;;;;;;;;;;;;;12.67;79.00;98802.95;106189;1263;125304;-82
2023/11/04 11:06:38;;;;;;;;;;;;;;;12.64;79.08;98805.29;106258;1258;72714;-82
2023/11/04 11:09:05;;;;;;;;;;;;;;;12.59;79.05;98806.05;106254;1258;61206;-81
2023/11/04 11:11:48;;;;;;;;;;;;;;;12.47;78.84;98808.50;106257;1262;124871;-81
2023/11/04 11:14:15;;;;;;;;;;;;;;;12.34;78.51;98815.20;106242;1258;74723;-81
2023/11/04 11:16:41;;;;;;;;;;;;;;;12.14;78.32;98821.24;106111;1258;125592;-82
2023/11/04 11:19:08;;;;;;;;;;;;;;;12.03;78.44;98821.91;106230;1264;71601;-81
2023/11/04 11:21:45;;;;;;;;;;;;;;;11.95;78.50;98821.30;106220;1263;61360;-81
2023/11/04 11:24:12;;;;;;;;;;;;;;;11.90;78.45;98825.55;106066;1259;124250;-83
2023/11/04 11:26:45;;;;;;;;;;;;;;;11.82;78.36;98825.63;106305;1263;74629;-84
2023/11/04 11:29:24;;;;;;;;;;;;;;;11.73;78.37;98827.66;106122;1261;124874;-83
2023/11/04 11:32:01;;;;;;;;;;;;;;;11.68;78.63;98827.19;106415;1258;72884;-85
2023/11/04 11:34:28;;;;;;;;;;;;;;;11.65;78.91;98828.44;106115;1258;124391;-81
2023/11/04 11:36:55;;;;;;;;;;;;;;;11.62;78.99;98829.17;106173;1264;61235;-81
2023/11/04 11:39:22;;;;;;;;;;;;;;;11.59;79.01;98824.99;106454;1262;73825;-82
2023/11/04 11:41:48;;;;;;;;;;;;;;;11.53;78.82;98833.30;106268;1262;125110;-82
2023/11/04 11:44:15;;;;;;;;;;;;;;;11.42;78.69;98832.36;106237;1260;72729;-82
2023/11/04 11:46:43;;;;;;;;;;;;;;;11.31;78.43;98837.02;106169;1259;125067;-82
2023/11/04 11:49:09;;;;;;;;;;;;;;;11.22;78.38;98834.46;106356;1264;61287;-82
2023/11/04 11:51:36;;;;;;;;;;;;;;;11.13;78.20;98834.19;106255;1259;74629;-83
2023/11/04 11:54:03;;;;;;;;;;;;;;;11.06;78.13;98835.64;106042;1259;126526;-83
2023/11/04 11:56:30;;;;;;;;;;;;;;;11.02;78.18;98843.75;106220;1263;72752;-82
2023/11/04 11:59:05;;;;;;;;;;;;;;;11.02;78.42;98841.64;106091;1258;124501;-82
2023/11/04 12:01:33;;;;;;;;;;;;;;;11.03;78.29;98838.64;106379;1258;59592;-82
2023/11/04 12:04:01;;;;;;;;;;;;;;;10.98;78.13;98847.64;106230;1260;74786;-82
2023/11/04 12:06:28;;;;;;;;;;;;;;;10.94;78.07;98850.47;106141;1261;124325;-83
2023/11/04 12:08:58;;;;;;;;;;;;;;;10.91;77.96;98853.30;106245;1263;72910;-83
2023/11/04 12:11:26;;;;;;;;;;;;;;;10.84;77.93;98858.27;106099;1258;125451;-83
2023/11/04 12:13:53;;;;;;;;;;;;;;;10.78;78.15;98854.44;106311;1260;61324;-82
2023/11/04 12:16:21;;;;;;;;;;;;;;;10.75;78.21;98854.64;106336;1262;125020;-82
2023/11/04 12:18:48;;;;;;;;;;;;;;;10.71;78.26;98857.29;106287;1259;66094;-83
2023/11/04 12:21:14;;;;;;;;;;;;;;;10.68;78.20;98858.54;106325;1258;72732;-82
2023/11/04 12:23:41;;;;;;;;;;;;;;;10.67;78.25;98869.59;106104;1258;125030;-82
2023/11/04 12:26:08;;;;;;;;;;;;;;;10.68;78.31;98872.23;106346;1259;61449;-82
2023/11/04 12:28:35;;;;;;;;;;;;;;;10.67;77.99;98878.54;106153;1261;125323;-82
2023/11/04 12:31:03;;;;;;;;;;;;;;;10.67;77.99;98881.17;106335;1258;66293;-82
2023/11/04 12:33:30;;;;;;;;;;;;;;;10.73;78.18;98878.33;106665;1258;72697;-83
2023/11/04 12:36:00;;;;;;;;;;;;;;;10.79;78.01;98879.17;106166;1262;124397;-82
2023/11/04 12:38:27;;;;;;;;;;;;;;;10.82;77.83;98883.36;106247;1260;61292;-83